createdAt,value
2023-03-17T00:01:18.228Z,45.30
2023-03-17T00:03:46.379Z,45.40
2023-03-17T00:06:21.468Z,45.60
2023-03-17T00:08:48.439Z,45.50
2023-03-17T00:11:17.001Z,45.40
2023-03-17T00:13:46.341Z,45.50
2023-03-17T00:16:25.500Z,45.70
2023-03-17T00:18:53.948Z,46.20
2023-03-17T00:21:30.617Z,46.40
2023-03-17T00:23:58.688Z,46.40
2023-03-17T00:26:26.498Z,46.70
2023-03-17T00:28:54.847Z,46.90
2023-03-17T00:31:27.782Z,46.90
2023-03-17T00:33:55.437Z,46.90
2023-03-17T00:36:25.984Z,47.00
2023-03-17T00:38:52.989Z,47.00
2023-03-17T00:41:20.539Z,46.80
2023-03-17T00:43:47.491Z,46.90
2023-03-17T00:46:22.655Z,46.60
2023-03-17T00:48:49.732Z,46.50
2023-03-17T00:51:17.416Z,46.70
2023-03-17T00:53:44.916Z,46.10
2023-03-17T00:56:15.806Z,46.30
2023-03-17T00:58:43.684Z,46.50
2023-03-17T01:01:11.225Z,46.80
2023-03-17T01:03:38.864Z,47.00
2023-03-17T01:06:08.450Z,46.90
2023-03-17T01:08:37.014Z,46.90
2023-03-17T01:11:04.175Z,47.10
2023-03-17T01:13:31.100Z,46.80
2023-03-17T01:15:58.212Z,46.90
2023-03-17T01:18:25.830Z,47.20
2023-03-17T01:20:53.265Z,47.10
2023-03-17T01:23:20.409Z,47.20
2023-03-17T01:25:47.785Z,47.40
2023-03-17T01:28:18.030Z,47.90
2023-03-17T01:30:46.005Z,47.70
2023-03-17T01:33:14.532Z,47.90
2023-03-17T01:35:43.882Z,47.90
2023-03-17T01:38:11.919Z,48.00
2023-03-17T01:40:46.937Z,48.10
2023-03-17T01:43:20.008Z,48.30
2023-03-17T01:46:28.139Z,48.40
2023-03-17T01:49:13.394Z,48.70
2023-03-17T01:51:49.023Z,48.90
2023-03-17T01:54:36.258Z,49.00
2023-03-17T01:57:10.557Z,49.10
2023-03-17T01:59:43.668Z,49.10
2023-03-17T02:02:14.716Z,48.90
2023-03-17T02:04:41.819Z,49.00
2023-03-17T02:07:10.298Z,48.90
2023-03-17T02:09:41.631Z,49.10
2023-03-17T02:12:10.444Z,49.10
2023-03-17T02:14:37.444Z,49.30
2023-03-17T02:20:32.813Z,49.40
2023-03-17T02:23:01.389Z,49.70
2023-03-17T02:25:30.864Z,49.80
2023-03-17T02:28:02.545Z,49.80
2023-03-17T02:30:29.796Z,50.00
2023-03-17T02:32:57.065Z,50.00
2023-03-17T02:35:24.041Z,50.00
2023-03-17T02:37:51.364Z,50.00
2023-03-17T02:40:18.776Z,49.90
2023-03-17T02:42:45.728Z,49.80
2023-03-17T02:45:14.386Z,50.10
2023-03-17T02:47:42.415Z,50.10
2023-03-17T02:50:18.126Z,50.20
2023-03-17T02:52:45.248Z,50.30
2023-03-17T02:55:12.174Z,50.50
2023-03-17T02:57:39.257Z,50.20
2023-03-17T03:00:07.018Z,50.60
2023-03-17T03:02:34.335Z,50.40
2023-03-17T03:05:02.844Z,50.70
2023-03-17T03:07:30.073Z,50.90
2023-03-17T03:09:57.021Z,51.10
2023-03-17T03:12:24.340Z,50.70
2023-03-17T03:14:51.302Z,50.70
2023-03-17T03:17:18.440Z,50.60
2023-03-17T03:19:45.308Z,50.60
2023-03-17T03:22:12.510Z,50.60
2023-03-17T03:24:39.593Z,50.80
2023-03-17T03:27:06.969Z,50.80
2023-03-17T03:29:34.522Z,50.80
2023-03-17T03:32:01.663Z,50.70
2023-03-17T03:34:29.416Z,50.50
2023-03-17T03:36:57.113Z,50.30
2023-03-17T03:39:24.127Z,50.60
2023-03-17T03:41:51.275Z,50.90
2023-03-17T03:44:21.368Z,51.00
2023-03-17T03:46:48.419Z,51.00
2023-03-17T03:49:15.793Z,51.00
2023-03-17T03:51:42.758Z,51.10
2023-03-17T03:54:09.636Z,50.60
2023-03-17T03:56:36.707Z,50.50
2023-03-17T03:59:03.885Z,50.70
2023-03-17T04:01:30.878Z,51.00
2023-03-17T04:03:57.849Z,51.20
2023-03-17T04:06:24.908Z,51.30
2023-03-17T04:08:52.266Z,51.30
2023-03-17T06:34:24.909Z,54.50
2023-03-17T06:36:52.022Z,54.30
2023-03-17T06:39:19.058Z,54.40
2023-03-17T06:41:46.165Z,54.40
2023-03-17T06:44:13.351Z,54.20
2023-03-17T06:46:41.028Z,53.50
2023-03-17T06:49:08.412Z,53.50
2023-03-17T06:51:37.300Z,53.20
2023-03-17T06:54:05.016Z,53.40
2023-03-17T06:56:32.512Z,54.50
2023-03-17T06:58:59.437Z,55.10
2023-03-17T07:01:27.453Z,54.20
2023-03-17T07:03:55.688Z,53.60
2023-03-17T07:06:25.946Z,53.30
2023-03-17T07:08:53.193Z,53.00
2023-03-17T07:11:20.417Z,53.00
2023-03-17T07:13:47.526Z,52.90
2023-03-17T07:16:16.746Z,53.10
2023-03-17T07:18:43.818Z,53.10
2023-03-17T07:21:10.843Z,52.90
2023-03-17T07:23:40.677Z,52.80
2023-03-17T07:26:07.645Z,52.50
2023-03-17T07:28:34.497Z,52.30
2023-03-17T07:31:02.908Z,52.00
2023-03-17T07:33:31.225Z,51.90
2023-03-17T07:35:58.410Z,51.80
2023-03-17T07:38:25.927Z,51.80
2023-03-17T07:40:53.438Z,51.80
2023-03-17T07:43:20.720Z,51.60
2023-03-17T07:45:47.933Z,51.50
2023-03-17T07:48:14.992Z,51.10
2023-03-17T07:50:42.621Z,51.00
2023-03-17T07:53:10.222Z,50.90
2023-03-17T07:55:39.405Z,50.60
2023-03-17T07:58:11.061Z,50.50
2023-03-17T08:00:40.055Z,50.00
2023-03-17T08:03:10.584Z,49.80
2023-03-17T08:05:38.450Z,49.50
2023-03-17T08:08:06.837Z,49.10
2023-03-17T08:10:34.534Z,49.10
2023-03-17T08:13:01.910Z,49.30
2023-03-17T08:15:30.914Z,49.30
2023-03-17T08:18:01.425Z,49.60
2023-03-17T08:20:32.089Z,50.00
2023-03-17T08:23:01.939Z,49.50
2023-03-17T08:25:29.629Z,49.40
2023-03-17T08:27:56.453Z,49.40
2023-03-17T08:30:23.365Z,49.60
2023-03-17T08:32:50.359Z,49.20
2023-03-17T08:35:18.546Z,49.00
2023-03-17T08:37:47.168Z,48.50
2023-03-17T08:40:17.590Z,48.10
2023-03-17T08:42:46.034Z,46.90
2023-03-17T08:45:13.840Z,46.90
2023-03-17T08:47:40.854Z,46.90
2023-03-17T08:50:12.603Z,46.60
2023-03-17T08:52:39.651Z,46.50
2023-03-17T08:55:08.978Z,45.60
2023-03-17T08:57:36.538Z,46.40
2023-03-17T09:00:11.106Z,46.00
2023-03-17T09:02:39.287Z,46.10
2023-03-17T09:05:07.734Z,45.80
2023-03-17T09:07:34.702Z,45.80
2023-03-17T09:10:04.238Z,45.90
2023-03-17T09:12:33.142Z,45.50
2023-03-17T09:15:02.016Z,45.10
2023-03-17T09:17:29.244Z,45.10
2023-03-17T09:19:56.156Z,44.90
2023-03-17T09:22:23.357Z,44.70
2023-03-17T09:24:50.733Z,43.70
2023-03-17T09:27:17.851Z,43.30
2023-03-17T09:29:44.950Z,43.00
2023-03-17T09:32:11.954Z,42.90
2023-03-17T09:34:38.897Z,42.60
2023-03-17T09:37:06.826Z,41.70
2023-03-17T09:39:34.127Z,41.60
2023-03-17T09:42:38.962Z,41.90
2023-03-17T09:45:12.462Z,41.30
2023-03-17T09:48:12.070Z,40.70
2023-03-17T09:50:57.515Z,40.40
2023-03-17T09:53:57.087Z,39.60
2023-03-17T09:56:24.871Z,40.10
2023-03-17T09:59:17.571Z,40.00
2023-03-17T10:01:44.916Z,39.40
2023-03-17T10:04:12.316Z,39.50
2023-03-17T10:06:46.811Z,38.70
2023-03-17T10:09:43.144Z,38.30
2023-03-17T10:12:24.731Z,36.80
2023-03-17T10:14:58.199Z,37.10
2023-03-17T10:17:39.332Z,37.20
2023-03-17T10:20:12.261Z,37.40
2023-03-17T10:22:39.221Z,37.10
2023-03-17T10:25:18.125Z,36.50
2023-03-17T10:28:11.549Z,36.40
2023-03-17T10:30:39.026Z,36.10
2023-03-17T10:33:09.735Z,36.10
2023-03-17T10:35:39.609Z,35.90
2023-03-17T10:38:15.867Z,35.40
2023-03-17T10:40:47.774Z,35.30
2023-03-17T10:43:20.672Z,35.20
2023-03-17T10:45:58.686Z,35.30
2023-03-17T10:48:26.646Z,35.10
2023-03-17T10:50:59.020Z,34.60
2023-03-17T10:53:28.465Z,34.50
2023-03-17T10:56:06.798Z,34.50
2023-03-17T10:58:39.916Z,34.70
2023-03-17T11:01:30.403Z,34.50
2023-03-17T11:03:58.042Z,34.60
2023-03-17T11:06:36.855Z,34.40
2023-03-17T11:09:16.683Z,34.20
2023-03-17T11:12:00.225Z,33.60
2023-03-17T11:14:28.318Z,33.60
2023-03-17T11:17:01.533Z,33.90
2023-03-17T11:19:43.775Z,35.00
2023-03-17T11:22:30.925Z,34.10
2023-03-17T11:25:23.498Z,33.70
2023-03-17T11:28:12.050Z,33.80
2023-03-17T11:30:57.685Z,32.80
2023-03-17T11:33:43.095Z,32.70
2023-03-17T11:37:00.448Z,32.90
2023-03-17T11:39:36.355Z,33.00
2023-03-17T11:42:27.573Z,33.80
2023-03-17T11:45:16.805Z,33.60
2023-03-17T11:48:23.828Z,33.80
2023-03-17T11:51:02.192Z,33.60
2023-03-17T11:53:52.692Z,33.30
2023-03-17T11:56:30.722Z,31.90
2023-03-17T11:59:03.835Z,31.90
2023-03-17T12:01:44.258Z,32.50
2023-03-17T12:04:40.761Z,32.90
2023-03-17T12:07:21.450Z,32.30
2023-03-17T12:10:05.994Z,31.90
2023-03-17T12:12:39.043Z,32.20
2023-03-17T12:15:14.731Z,31.80
2023-03-17T12:17:56.465Z,32.00
2023-03-17T12:20:46.613Z,31.10
2023-03-17T12:23:31.868Z,31.30
2023-03-17T12:26:12.398Z,31.60
2023-03-17T12:28:58.550Z,32.00
2023-03-17T12:31:44.518Z,31.70
2023-03-17T12:34:42.443Z,31.40
2023-03-17T12:37:09.994Z,31.10
2023-03-17T12:39:40.182Z,31.40
2023-03-17T12:42:28.939Z,31.40
2023-03-17T12:45:33.499Z,31.00
2023-03-17T12:48:29.994Z,30.50
2023-03-17T12:51:26.356Z,30.00
2023-03-17T12:53:54.318Z,30.00
2023-03-17T12:56:31.303Z,30.00
2023-03-17T12:59:09.384Z,30.20
2023-03-17T13:01:45.057Z,30.50
2023-03-17T13:04:22.195Z,30.40
2023-03-17T13:06:59.732Z,30.40
2023-03-17T13:09:39.591Z,29.90
2023-03-17T13:12:08.031Z,29.70
2023-03-17T13:14:52.144Z,29.60
2023-03-17T13:17:19.998Z,29.60
2023-03-17T13:19:55.505Z,29.20
2023-03-17T13:22:22.572Z,29.10
2023-03-17T13:24:53.745Z,28.10
2023-03-17T13:27:32.928Z,28.30
2023-03-17T13:30:22.226Z,28.70
2023-03-17T13:33:20.178Z,28.60
2023-03-17T13:36:17.359Z,28.60
2023-03-17T13:39:18.845Z,28.30
2023-03-17T13:42:01.064Z,28.50
2023-03-17T13:44:41.274Z,27.90
2023-03-17T13:47:36.809Z,28.00
2023-03-17T13:50:32.684Z,27.70
2023-03-17T13:53:08.702Z,27.60
2023-03-17T13:55:42.118Z,27.70
2023-03-17T13:58:11.310Z,27.80
2023-03-17T14:00:41.998Z,28.00
2023-03-17T14:03:14.870Z,28.10
2023-03-17T14:05:46.633Z,27.90
2023-03-17T14:08:38.629Z,27.60
2023-03-17T14:11:23.782Z,28.00
2023-03-17T14:14:26.114Z,28.10
2023-03-17T14:17:16.147Z,27.60
2023-03-17T14:20:18.543Z,27.50
2023-03-17T14:22:48.627Z,27.50
2023-03-17T14:25:23.593Z,27.40
2023-03-17T14:27:56.962Z,27.10
2023-03-17T14:30:26.588Z,27.10
2023-03-17T14:32:59.707Z,27.30
2023-03-17T14:35:39.038Z,27.40
2023-03-17T14:38:22.998Z,27.40
2023-03-17T14:41:02.172Z,27.40
2023-03-17T14:43:29.415Z,27.40
2023-03-17T14:46:08.123Z,27.30
2023-03-17T14:48:41.533Z,26.90
2023-03-17T14:51:24.051Z,26.90
2023-03-17T14:53:52.934Z,26.80
2023-03-17T14:56:25.831Z,26.60
2023-03-17T14:58:53.648Z,26.60
2023-03-17T15:01:34.211Z,26.70
2023-03-17T15:04:15.946Z,26.70
2023-03-17T15:07:03.691Z,26.80
2023-03-17T15:09:33.677Z,27.70
2023-03-17T15:12:16.774Z,28.70
2023-03-17T15:14:46.079Z,29.30
2023-03-17T15:17:16.846Z,29.10
2023-03-17T15:19:50.027Z,28.90
2023-03-17T15:22:44.552Z,29.00
2023-03-17T15:25:32.848Z,29.00
2023-03-17T15:28:00.243Z,28.60
2023-03-17T15:30:37.369Z,28.50
2023-03-17T15:33:46.519Z,28.40
2023-03-17T15:36:31.382Z,28.40
2023-03-17T15:38:59.194Z,28.30
2023-03-17T15:41:26.868Z,28.00
2023-03-17T15:43:54.014Z,27.80
2023-03-17T15:46:31.212Z,27.90
2023-03-17T15:48:58.829Z,27.90
2023-03-17T15:51:26.457Z,28.10
2023-03-17T15:53:53.466Z,28.00
2023-03-17T15:56:21.409Z,27.90
2023-03-17T15:58:51.635Z,28.00
2023-03-17T16:01:19.907Z,27.80
2023-03-17T16:03:48.843Z,27.50
2023-03-17T16:06:18.990Z,27.40
2023-03-17T16:08:50.086Z,27.40
2023-03-17T16:11:28.041Z,27.10
2023-03-17T16:13:56.340Z,27.00
2023-03-17T16:16:37.030Z,27.20
2023-03-17T16:19:12.868Z,27.20
2023-03-17T16:21:41.898Z,27.40
2023-03-17T16:24:19.500Z,27.60
2023-03-17T16:26:46.754Z,28.00
2023-03-17T16:29:14.776Z,27.90
2023-03-17T16:31:44.031Z,27.70
2023-03-17T16:34:19.449Z,26.80
2023-03-17T16:36:47.086Z,26.30
2023-03-17T16:39:33.840Z,26.40
2023-03-17T16:42:02.126Z,26.00
2023-03-17T16:44:29.158Z,26.30
2023-03-17T16:46:56.146Z,26.30
2023-03-17T16:49:23.244Z,26.40
2023-03-17T16:51:50.755Z,26.30
2023-03-17T16:54:17.939Z,26.50
2023-03-17T16:56:45.582Z,26.80
2023-03-17T16:59:20.967Z,26.80
2023-03-17T17:01:48.162Z,26.60
2023-03-17T17:04:15.384Z,26.90
2023-03-17T17:06:42.481Z,27.20
2023-03-17T17:09:14.585Z,27.20
2023-03-17T17:11:44.235Z,27.20
2023-03-17T17:14:11.275Z,27.30
2023-03-17T17:16:42.053Z,27.30
2023-03-17T17:19:18.230Z,27.90
2023-03-17T17:21:45.732Z,27.60
2023-03-17T17:24:13.975Z,27.90
2023-03-17T17:26:41.512Z,27.90
2023-03-17T17:29:08.495Z,28.30
2023-03-17T17:31:35.631Z,28.20
2023-03-17T17:34:02.600Z,28.40
2023-03-17T17:36:29.899Z,28.20
2023-03-17T17:38:56.888Z,28.30
2023-03-17T17:41:24.382Z,28.70
2023-03-17T17:43:51.667Z,29.20
2023-03-17T17:46:25.643Z,29.60
2023-03-17T17:48:52.753Z,29.20
2023-03-17T17:51:19.828Z,29.30
2023-03-17T17:53:47.153Z,29.10
2023-03-17T17:56:15.819Z,29.40
2023-03-17T17:58:43.847Z,30.00
2023-03-17T18:01:13.751Z,30.00
2023-03-17T18:03:43.870Z,30.70
2023-03-17T18:06:13.064Z,31.00
2023-03-17T18:08:40.858Z,31.00
2023-03-17T18:11:08.105Z,31.50
2023-03-17T18:13:36.176Z,32.00
2023-03-17T18:16:04.130Z,32.30
2023-03-17T18:18:33.508Z,32.20
2023-03-17T18:21:00.581Z,32.90
2023-03-17T18:23:28.051Z,33.40
2023-03-17T18:26:02.094Z,33.90
2023-03-17T18:28:29.792Z,34.30
2023-03-17T18:31:07.644Z,34.40
2023-03-17T18:33:34.660Z,34.90
2023-03-17T18:36:06.146Z,34.70
2023-03-17T18:38:37.815Z,34.90
2023-03-17T18:41:07.221Z,35.30
2023-03-17T18:43:34.164Z,35.10
2023-03-17T18:46:01.066Z,35.30
2023-03-17T18:48:27.917Z,35.40
2023-03-17T18:50:54.875Z,36.00
2023-03-17T18:53:22.425Z,36.30
2023-03-17T18:55:49.304Z,36.70
2023-03-17T18:58:16.242Z,36.90
2023-03-17T19:00:43.205Z,37.30
2023-03-17T19:03:10.105Z,37.60
2023-03-17T19:05:40.968Z,38.30
2023-03-17T19:08:08.019Z,38.10
2023-03-17T19:10:35.163Z,38.30
2023-03-17T19:13:02.275Z,38.60
2023-03-17T19:15:29.177Z,39.00
2023-03-17T19:17:56.135Z,39.20
2023-03-17T19:20:22.994Z,39.20
2023-03-17T19:22:53.282Z,39.40
2023-03-17T19:25:21.263Z,39.50
2023-03-17T19:27:48.161Z,39.50
2023-03-17T19:30:15.367Z,39.40
2023-03-17T19:32:42.270Z,39.50
2023-03-17T19:35:09.513Z,39.40
2023-03-17T19:37:38.111Z,38.60
2023-03-17T19:40:10.219Z,38.00
2023-03-17T19:42:37.559Z,37.30
2023-03-17T19:45:05.134Z,37.00
2023-03-17T19:47:32.144Z,37.40
2023-03-17T19:49:59.205Z,38.00
2023-03-17T19:52:26.178Z,38.40
2023-03-17T19:54:52.981Z,38.30
2023-03-17T19:57:20.945Z,38.20
2023-03-17T19:59:48.016Z,38.20
2023-03-17T20:02:16.776Z,38.70
2023-03-17T20:04:44.435Z,38.70
2023-03-17T20:07:11.825Z,39.00
2023-03-17T20:09:39.342Z,39.20
2023-03-17T20:12:06.660Z,39.20
2023-03-17T20:14:33.962Z,39.20
2023-03-17T20:17:00.966Z,39.30
2023-03-17T20:19:27.840Z,39.50
2023-03-17T20:21:54.748Z,39.90
2023-03-17T20:24:22.333Z,40.20
2023-03-17T20:26:49.506Z,40.30
2023-03-17T20:29:17.478Z,40.30
2023-03-17T20:31:44.440Z,39.90
2023-03-17T20:34:11.790Z,39.80
2023-03-17T20:36:42.266Z,39.50
2023-03-17T20:39:13.129Z,39.80
2023-03-17T20:41:40.170Z,40.00
2023-03-17T20:44:07.398Z,40.40
2023-03-17T20:46:34.443Z,40.40
2023-03-17T20:49:02.016Z,40.70
2023-03-17T20:51:28.886Z,41.00
2023-03-17T20:53:56.788Z,41.40
2023-03-17T20:56:26.450Z,41.50
2023-03-17T20:58:53.558Z,41.30
2023-03-17T21:01:21.520Z,40.80
2023-03-17T21:03:49.580Z,41.00
2023-03-17T21:06:17.520Z,41.20
2023-03-17T21:08:46.279Z,42.00
2023-03-17T21:11:18.877Z,41.60
2023-03-17T21:13:46.026Z,41.70
2023-03-17T21:16:20.891Z,41.60
2023-03-17T21:18:48.454Z,41.40
2023-03-17T21:21:16.618Z,41.20
2023-03-17T21:23:44.059Z,41.40
2023-03-17T21:26:11.371Z,41.40
2023-03-17T21:28:41.856Z,41.30
2023-03-17T21:31:09.633Z,41.40
2023-03-17T21:33:37.136Z,41.20
2023-03-17T21:36:06.378Z,42.30
2023-03-17T21:38:33.433Z,41.60
2023-03-17T21:41:37.889Z,41.70
2023-03-17T21:44:06.239Z,41.80
2023-03-17T21:46:33.576Z,41.90
2023-03-17T21:49:01.478Z,41.70
2023-03-17T21:51:28.491Z,41.60
2023-03-17T21:53:55.994Z,42.00
2023-03-17T21:56:23.068Z,42.20
2023-03-17T21:58:50.223Z,42.70
2023-03-17T22:01:18.803Z,43.00
2023-03-17T22:03:46.002Z,43.40
2023-03-17T22:06:16.248Z,43.60
2023-03-17T22:08:43.897Z,43.60
2023-03-17T22:11:13.507Z,43.70
2023-03-17T22:13:41.352Z,43.90
2023-03-17T22:16:09.289Z,43.70
2023-03-17T22:18:37.311Z,43.30
2023-03-17T22:21:05.635Z,42.70
2023-03-17T22:23:37.126Z,43.90
2023-03-17T22:26:04.429Z,43.20
2023-03-17T22:28:31.230Z,43.40
2023-03-17T22:30:58.444Z,43.20
2023-03-17T22:33:25.264Z,44.20
2023-03-17T22:35:52.333Z,44.40
2023-03-17T22:38:19.267Z,44.70
2023-03-17T22:40:46.259Z,45.10
2023-03-17T22:43:13.121Z,45.10
2023-03-17T22:45:40.272Z,45.30
2023-03-17T22:48:07.215Z,45.20
2023-03-17T22:50:34.515Z,44.90
2023-03-17T22:53:01.444Z,45.10
2023-03-17T22:55:28.309Z,45.10
2023-03-17T22:57:55.180Z,45.30
2023-03-17T23:00:22.967Z,45.60
2023-03-17T23:02:49.765Z,45.60
2023-03-17T23:05:16.718Z,45.80
2023-03-17T23:07:51.749Z,45.90
2023-03-17T23:10:24.644Z,46.00
2023-03-17T23:12:52.550Z,45.80
2023-03-17T23:15:20.892Z,45.50
2023-03-17T23:17:47.956Z,45.50
2023-03-17T23:20:15.457Z,45.50
2023-03-17T23:22:42.824Z,45.80
2023-03-17T23:25:10.553Z,45.90
2023-03-17T23:27:37.552Z,45.90
2023-03-17T23:30:05.723Z,45.90
2023-03-17T23:32:32.760Z,46.00
2023-03-17T23:34:59.844Z,46.20
2023-03-17T23:37:27.382Z,46.20
2023-03-17T23:39:55.020Z,46.30
2023-03-17T23:42:22.417Z,46.30
2023-03-17T23:44:50.281Z,46.60
2023-03-17T23:47:17.792Z,46.70
2023-03-17T23:49:44.979Z,46.90
2023-03-17T23:52:11.876Z,46.90
2023-03-17T23:54:39.479Z,47.10
2023-03-17T23:57:06.507Z,47.20
2023-03-17T23:59:34.761Z,47.40
